createdAt,value
2023-03-06T00:01:21.879Z,23.50
2023-03-06T00:02:23.469Z,23.00
2023-03-06T00:03:23.040Z,22.70
2023-03-06T00:04:25.239Z,22.60
2023-03-06T00:05:22.460Z,21.40
2023-03-06T00:05:49.417Z,21.70
2023-03-06T00:07:22.411Z,21.80
2023-03-06T00:09:08.340Z,21.90
2023-03-06T00:10:42.561Z,22.10
2023-03-06T00:11:43.065Z,22.20
2023-03-06T00:12:44.058Z,22.10
2023-03-06T00:13:09.450Z,22.30
2023-03-06T00:14:09.446Z,22.60
2023-03-06T00:15:09.482Z,21.30
2023-03-06T00:16:09.445Z,21.50
2023-03-06T00:17:09.405Z,22.30
2023-03-06T00:18:09.448Z,22.50
2023-03-06T00:19:09.391Z,22.30
2023-03-06T00:20:09.408Z,23.30
2023-03-06T00:21:09.366Z,22.60
2023-03-06T00:22:09.342Z,22.80
2023-03-06T00:23:09.360Z,21.70
2023-03-06T00:24:09.354Z,22.80
2023-03-06T00:25:09.327Z,22.10
2023-03-06T00:26:09.356Z,23.80
2023-03-06T00:27:09.341Z,22.90
2023-03-06T00:28:09.299Z,23.90
2023-03-06T00:29:10.034Z,24.40
2023-03-06T00:30:09.262Z,24.20
2023-03-06T00:31:09.288Z,23.60
2023-03-06T00:32:09.311Z,24.30
2023-03-06T00:33:09.229Z,23.50
2023-03-06T00:34:09.283Z,24.90
2023-03-06T00:35:09.202Z,24.70
2023-03-06T00:36:09.221Z,24.30
2023-03-06T00:37:09.245Z,24.80
2023-03-06T00:38:09.197Z,25.00
2023-03-06T00:39:09.200Z,25.80
2023-03-06T00:40:09.185Z,25.20
2023-03-06T00:41:09.225Z,26.60
2023-03-06T00:42:09.162Z,25.70
2023-03-06T00:43:09.154Z,26.40
2023-03-06T00:44:09.110Z,26.40
2023-03-06T00:45:09.136Z,27.00
2023-03-06T00:46:09.208Z,26.70
2023-03-06T00:47:09.686Z,26.80
2023-03-06T00:48:09.119Z,27.40
2023-03-06T00:49:09.048Z,27.00
2023-03-06T00:50:09.042Z,28.70
2023-03-06T00:51:09.054Z,27.70
2023-03-06T00:52:09.071Z,27.50
2023-03-06T00:53:09.057Z,27.30
2023-03-06T00:54:09.040Z,27.80
2023-03-06T00:55:09.037Z,26.80
2023-03-06T00:56:08.969Z,27.50
2023-03-06T00:57:08.977Z,27.50
2023-03-06T00:58:08.970Z,27.60
2023-03-06T00:59:09.006Z,27.50
2023-03-06T01:00:08.960Z,28.60
2023-03-06T01:01:08.986Z,28.50
2023-03-06T01:02:08.951Z,28.00
2023-03-06T01:03:08.926Z,27.40
2023-03-06T01:04:08.939Z,27.30
2023-03-06T01:05:08.910Z,29.20
2023-03-06T01:06:08.866Z,28.60
2023-03-06T01:07:08.859Z,29.00
2023-03-06T01:08:08.874Z,28.00
2023-03-06T01:09:08.894Z,27.90
2023-03-06T01:10:08.844Z,29.70
2023-03-06T01:11:08.868Z,28.80
2023-03-06T01:12:08.825Z,30.00
2023-03-06T01:13:08.795Z,29.50
2023-03-06T01:14:08.837Z,29.80
2023-03-06T01:15:08.825Z,29.70
2023-03-06T01:16:08.840Z,29.60
2023-03-06T01:17:08.754Z,30.50
2023-03-06T01:18:08.765Z,31.40
2023-03-06T01:19:08.761Z,31.40
2023-03-06T01:20:08.723Z,31.40
2023-03-06T01:21:08.723Z,30.70
2023-03-06T01:22:08.725Z,31.80
2023-03-06T01:23:08.758Z,31.70
2023-03-06T01:24:08.694Z,32.80
2023-03-06T01:25:08.717Z,32.70
2023-03-06T01:26:08.669Z,31.70
2023-03-06T01:27:08.716Z,31.00
2023-03-06T01:28:08.673Z,33.10
2023-03-06T01:29:08.628Z,35.40
2023-03-06T01:30:08.882Z,33.00
2023-03-06T01:31:08.572Z,33.00
2023-03-06T01:32:08.719Z,33.70
2023-03-06T01:33:08.632Z,34.90
2023-03-06T01:34:08.586Z,34.10
2023-03-06T01:35:08.557Z,32.40
2023-03-06T01:36:09.510Z,32.70
2023-03-06T01:37:08.549Z,33.80
2023-03-06T01:38:08.572Z,34.40
2023-03-06T01:39:08.566Z,34.50
2023-03-06T01:40:08.540Z,34.70
2023-03-06T01:41:08.513Z,34.40
2023-03-06T01:42:08.486Z,34.60
2023-03-06T01:43:09.500Z,36.10
2023-03-06T01:44:08.493Z,34.90
2023-03-06T01:45:08.477Z,35.60
2023-03-06T01:46:08.477Z,34.50
2023-03-06T01:47:08.459Z,34.30
2023-03-06T01:48:08.463Z,36.00
2023-03-06T01:49:08.436Z,34.70
2023-03-06T01:50:08.388Z,36.30
2023-03-06T01:51:08.407Z,36.80
2023-03-06T01:52:08.389Z,38.50
2023-03-06T01:53:08.398Z,38.00
2023-03-06T01:54:09.068Z,39.40
2023-03-06T01:55:08.351Z,37.90
2023-03-06T01:56:08.440Z,38.20
2023-03-06T01:57:08.327Z,39.10
2023-03-06T01:58:08.331Z,37.90
2023-03-06T01:59:08.330Z,39.40
2023-03-06T02:00:08.312Z,38.10
2023-03-06T02:01:08.485Z,36.60
2023-03-06T02:02:08.325Z,38.20
2023-03-06T02:03:08.253Z,38.10
2023-03-06T02:04:08.328Z,39.00
2023-03-06T02:05:08.274Z,37.30
2023-03-06T02:06:08.228Z,38.30
2023-03-06T02:07:08.215Z,37.80
2023-03-06T02:08:08.221Z,38.50
2023-03-06T02:09:08.198Z,38.30
2023-03-06T02:10:08.178Z,38.00
2023-03-06T02:11:08.243Z,37.90
2023-03-06T02:12:08.207Z,37.30
2023-03-06T02:13:08.170Z,36.80
2023-03-06T02:14:08.199Z,37.70
2023-03-06T02:15:08.142Z,37.20
2023-03-06T02:16:08.140Z,36.90
2023-03-06T02:17:08.123Z,37.20
2023-03-06T02:18:08.116Z,36.80
2023-03-06T02:19:08.088Z,35.90
2023-03-06T02:20:08.102Z,36.90
2023-03-06T02:21:08.084Z,37.20
2023-03-06T02:22:08.061Z,37.60
2023-03-06T02:23:08.052Z,38.20
2023-03-06T02:24:08.056Z,37.20
2023-03-06T02:25:08.052Z,37.30
2023-03-06T02:26:08.021Z,38.30
2023-03-06T02:27:08.013Z,36.60
2023-03-06T02:28:08.009Z,37.50
2023-03-06T02:29:08.001Z,37.20
2023-03-06T02:30:07.996Z,36.60
2023-03-06T02:31:08.020Z,37.70
2023-03-06T02:32:08.211Z,37.20
2023-03-06T02:33:07.949Z,36.70
2023-03-06T02:34:07.985Z,37.60
2023-03-06T02:35:07.916Z,37.60
2023-03-06T02:36:07.947Z,37.80
2023-03-06T02:37:08.186Z,36.70
2023-03-06T02:38:07.944Z,37.50
2023-03-06T02:39:07.866Z,38.50
2023-03-06T02:40:08.888Z,37.60
2023-03-06T02:41:07.864Z,37.70
2023-03-06T02:42:07.850Z,37.30
2023-03-06T02:43:07.945Z,37.90
2023-03-06T02:44:07.835Z,37.30
2023-03-06T02:45:07.833Z,38.30
2023-03-06T02:46:07.857Z,37.90
2023-03-06T02:47:07.817Z,37.50
2023-03-06T02:48:07.802Z,37.10
2023-03-06T02:49:07.783Z,37.90
2023-03-06T02:50:07.726Z,38.50
2023-03-06T02:51:07.745Z,38.40
2023-03-06T02:52:08.522Z,37.80
2023-03-06T02:53:07.719Z,38.70
2023-03-06T02:54:07.737Z,37.90
2023-03-06T02:55:07.694Z,38.10
2023-03-06T02:56:07.669Z,39.00
2023-03-06T02:57:07.701Z,38.30
2023-03-06T02:58:07.672Z,39.10
2023-03-06T02:59:07.681Z,37.60
2023-03-06T03:00:07.684Z,38.60
2023-03-06T03:01:07.671Z,38.20
2023-03-06T03:02:07.614Z,38.40
2023-03-06T03:03:07.615Z,37.70
2023-03-06T03:04:07.671Z,39.00
2023-03-06T03:05:07.572Z,37.30
2023-03-06T03:06:07.576Z,38.60
2023-03-06T03:07:07.572Z,38.30
2023-03-06T03:08:07.585Z,39.20
2023-03-06T03:09:07.579Z,39.40
2023-03-06T03:10:07.559Z,38.60
2023-03-06T03:11:07.540Z,38.50
2023-03-06T03:12:07.553Z,38.70
2023-03-06T03:13:07.490Z,40.50
2023-03-06T03:14:07.507Z,40.50
2023-03-06T03:15:07.485Z,39.40
2023-03-06T03:16:07.575Z,39.70
2023-03-06T03:17:07.468Z,40.40
2023-03-06T03:18:07.471Z,39.80
2023-03-06T03:19:07.452Z,39.00
2023-03-06T03:20:07.422Z,40.80
2023-03-06T03:21:07.401Z,39.80
2023-03-06T03:22:07.431Z,39.50
2023-03-06T03:23:07.395Z,40.70
2023-03-06T03:24:07.434Z,40.00
2023-03-06T03:25:07.379Z,40.60
2023-03-06T03:26:07.348Z,40.20
2023-03-06T03:27:07.360Z,39.80
2023-03-06T03:28:07.333Z,40.90
2023-03-06T03:29:07.361Z,41.20
2023-03-06T03:30:07.335Z,39.20
2023-03-06T03:31:07.316Z,41.60
2023-03-06T03:32:07.398Z,41.20
2023-03-06T03:33:07.260Z,41.30
2023-03-06T03:34:07.256Z,41.40
2023-03-06T03:35:07.252Z,40.00
2023-03-06T03:36:07.250Z,40.10
2023-03-06T03:37:07.289Z,40.80
2023-03-06T03:38:07.232Z,40.50
2023-03-06T03:39:07.197Z,40.60
2023-03-06T03:40:07.207Z,40.80
2023-03-06T03:41:07.177Z,40.40
2023-03-06T03:42:07.181Z,39.90
2023-03-06T03:43:07.167Z,40.90
2023-03-06T03:44:07.155Z,40.80
2023-03-06T03:45:07.142Z,41.10
2023-03-06T03:46:07.218Z,40.20
2023-03-06T03:47:07.146Z,41.60
2023-03-06T03:48:07.108Z,40.00
2023-03-06T03:49:07.124Z,41.20
2023-03-06T03:50:07.070Z,41.50
2023-03-06T03:51:07.083Z,41.50
2023-03-06T03:52:07.107Z,40.70
2023-03-06T03:53:07.062Z,42.20
2023-03-06T03:54:07.039Z,42.30
2023-03-06T03:55:07.033Z,44.30
2023-03-06T03:56:07.036Z,42.50
2023-03-06T03:57:07.017Z,41.30
2023-03-06T03:58:07.035Z,42.70
2023-03-06T03:59:07.130Z,42.90
2023-03-06T04:00:07.022Z,41.80
2023-03-06T04:01:06.967Z,42.70
2023-03-06T04:02:07.024Z,42.20
2023-03-06T04:03:06.941Z,42.20
2023-03-06T04:04:06.928Z,43.00
2023-03-06T04:05:06.957Z,42.10
2023-03-06T04:06:06.904Z,41.30
2023-03-06T04:07:06.887Z,42.40
2023-03-06T04:08:06.860Z,43.40
2023-03-06T04:09:06.910Z,41.80
2023-03-06T04:10:06.858Z,43.00
2023-03-06T04:11:06.836Z,42.30
2023-03-06T04:12:06.846Z,41.90
2023-03-06T04:13:09.566Z,42.40
2023-03-06T04:14:06.865Z,42.90
2023-03-06T04:15:06.849Z,42.00
2023-03-06T04:16:06.879Z,43.40
2023-03-06T04:17:06.864Z,43.30
2023-03-06T04:18:06.827Z,43.10
2023-03-06T04:19:06.801Z,44.00
2023-03-06T04:20:06.791Z,44.00
2023-03-06T04:21:06.784Z,43.50
2023-03-06T04:22:06.766Z,43.60
2023-03-06T04:23:06.765Z,42.70
2023-03-06T04:24:06.749Z,42.50
2023-03-06T04:25:06.682Z,43.70
2023-03-06T04:26:06.748Z,45.10
2023-03-06T04:27:06.685Z,43.00
2023-03-06T04:28:06.659Z,41.90
2023-03-06T04:29:06.663Z,44.60
2023-03-06T04:30:06.638Z,43.60
2023-03-06T04:31:06.652Z,43.40
2023-03-06T04:32:06.701Z,43.40
2023-03-06T04:33:06.627Z,43.00
2023-03-06T04:34:06.615Z,44.40
2023-03-06T04:35:06.579Z,45.50
2023-03-06T04:36:06.610Z,43.60
2023-03-06T04:37:06.592Z,43.80
2023-03-06T04:38:06.573Z,44.40
2023-03-06T04:39:06.608Z,43.50
2023-03-06T04:40:06.541Z,44.60
2023-03-06T04:41:06.549Z,44.00
2023-03-06T04:42:06.524Z,45.80
2023-03-06T04:43:06.507Z,44.60
2023-03-06T04:44:06.482Z,44.70
2023-03-06T04:45:06.516Z,44.20
2023-03-06T04:46:06.546Z,44.80
2023-03-06T04:47:06.503Z,46.30
2023-03-06T04:48:07.978Z,47.10
2023-03-06T04:49:06.428Z,44.70
2023-03-06T04:50:06.422Z,44.90
2023-03-06T04:51:06.427Z,44.90
2023-03-06T04:52:06.416Z,46.60
2023-03-06T04:53:06.392Z,45.70
2023-03-06T04:54:06.447Z,46.70
2023-03-06T04:55:06.426Z,45.80
2023-03-06T04:56:06.391Z,45.20
2023-03-06T04:57:06.418Z,45.50
2023-03-06T04:58:06.371Z,46.80
2023-03-06T04:59:06.366Z,46.20
2023-03-06T05:00:06.401Z,44.80
2023-03-06T05:01:06.337Z,46.50
2023-03-06T05:02:07.390Z,45.90
2023-03-06T05:03:06.270Z,45.30
2023-03-06T05:04:06.311Z,46.00
2023-03-06T05:05:06.282Z,47.20
2023-03-06T05:06:06.961Z,47.60
2023-03-06T05:07:06.241Z,47.70
2023-03-06T05:08:06.240Z,46.60
2023-03-06T05:09:07.236Z,47.70
2023-03-06T05:10:06.235Z,48.40
2023-03-06T05:11:06.188Z,46.50
2023-03-06T05:12:06.195Z,47.20
2023-03-06T05:13:06.192Z,46.80
2023-03-06T05:14:06.154Z,48.30
2023-03-06T05:15:06.166Z,49.10
2023-03-06T05:16:06.222Z,48.20
2023-03-06T05:17:06.108Z,47.20
2023-03-06T05:18:06.232Z,47.40
2023-03-06T05:19:06.100Z,46.30
2023-03-06T05:20:06.116Z,49.20
2023-03-06T05:21:06.065Z,45.80
2023-03-06T05:22:06.064Z,47.10
2023-03-06T05:23:06.059Z,46.60
2023-03-06T05:24:07.019Z,48.70
2023-03-06T05:25:06.023Z,47.90
2023-03-06T05:26:06.024Z,48.90
2023-03-06T05:27:06.049Z,46.80
2023-03-06T05:28:06.014Z,47.30
2023-03-06T05:29:06.040Z,47.80
2023-03-06T05:30:06.101Z,47.60
2023-03-06T05:31:07.211Z,47.50
2023-03-06T05:32:06.243Z,47.20
2023-03-06T05:33:06.032Z,49.20
2023-03-06T05:34:06.053Z,47.80
2023-03-06T05:35:07.075Z,47.30
2023-03-06T05:36:07.628Z,48.30
2023-03-06T05:37:10.157Z,48.60
2023-03-06T05:38:11.688Z,48.70
2023-03-06T05:39:08.845Z,47.60
2023-03-06T05:40:10.460Z,48.70
2023-03-06T05:41:07.419Z,47.50
2023-03-06T05:42:06.060Z,49.60
2023-03-06T05:43:06.172Z,49.40
2023-03-06T05:44:05.925Z,48.80
2023-03-06T05:45:05.934Z,47.40
2023-03-06T05:46:07.202Z,49.10
2023-03-06T05:47:05.946Z,51.00
2023-03-06T05:48:05.888Z,48.30
2023-03-06T05:49:05.807Z,50.70
2023-03-06T05:50:06.022Z,50.30
2023-03-06T05:51:06.017Z,50.60
2023-03-06T05:52:05.985Z,49.80
2023-03-06T05:53:05.733Z,48.50
2023-03-06T05:54:05.745Z,49.30
2023-03-06T05:55:09.134Z,51.70
2023-03-06T05:56:05.725Z,49.40
2023-03-06T05:57:05.736Z,49.40
2023-03-06T05:58:05.693Z,50.70
2023-03-06T05:59:05.806Z,49.20
2023-03-06T06:00:05.715Z,50.00
2023-03-06T06:01:05.994Z,49.60
2023-03-06T06:02:07.818Z,50.10
2023-03-06T06:03:08.342Z,51.10
2023-03-06T06:04:10.089Z,50.00
2023-03-06T06:05:05.973Z,50.00
2023-03-06T06:06:05.676Z,49.60
2023-03-06T06:07:06.103Z,50.00
2023-03-06T06:08:05.670Z,48.90
2023-03-06T06:09:05.539Z,49.10
2023-03-06T06:10:05.533Z,49.60
2023-03-06T06:11:05.544Z,51.00
2023-03-06T06:12:05.519Z,49.40
2023-03-06T06:13:05.683Z,49.50
2023-03-06T06:14:05.483Z,48.40
2023-03-06T06:15:05.511Z,49.80
2023-03-06T06:16:05.477Z,49.30
2023-03-06T06:17:05.465Z,47.90
2023-03-06T06:18:05.469Z,49.00
2023-03-06T06:19:05.484Z,48.80
2023-03-06T06:20:05.449Z,50.50
2023-03-06T06:21:05.421Z,49.50
2023-03-06T06:22:05.386Z,49.00
2023-03-06T06:23:05.395Z,50.20
2023-03-06T06:24:05.668Z,51.00
2023-03-06T06:25:05.368Z,48.90
2023-03-06T06:26:05.356Z,49.70
2023-03-06T06:27:06.064Z,49.20
2023-03-06T06:28:05.360Z,49.70
2023-03-06T06:29:05.320Z,48.30
2023-03-06T06:30:05.325Z,49.10
2023-03-06T06:31:05.330Z,48.70
2023-03-06T06:32:05.338Z,50.00
2023-03-06T06:33:05.337Z,49.60
2023-03-06T06:34:05.306Z,49.10
2023-03-06T06:35:05.310Z,48.70
2023-03-06T06:36:05.265Z,48.20
2023-03-06T06:37:05.284Z,48.50
2023-03-06T06:38:05.239Z,48.40
2023-03-06T06:39:05.216Z,47.40
2023-03-06T06:40:05.233Z,48.50
2023-03-06T06:41:33.326Z,48.60
2023-03-06T06:42:29.062Z,48.80
2023-03-06T06:43:07.199Z,47.80
2023-03-06T06:44:07.242Z,48.30
2023-03-06T06:45:05.164Z,49.90
2023-03-06T06:46:28.301Z,49.20
2023-03-06T06:47:22.294Z,46.50
2023-03-06T06:48:07.160Z,46.70
2023-03-06T06:49:05.115Z,45.40
2023-03-06T06:50:05.283Z,45.10
2023-03-06T06:51:05.131Z,44.80
2023-03-06T06:52:05.148Z,46.10
2023-03-06T06:53:05.113Z,46.10
2023-03-06T06:54:05.072Z,45.30
2023-03-06T06:55:05.045Z,44.70
2023-03-06T06:56:05.026Z,44.40
2023-03-06T06:57:05.061Z,44.60
2023-03-06T06:58:05.040Z,44.40
2023-03-06T06:59:16.181Z,44.00
2023-03-06T07:00:07.038Z,44.30
2023-03-06T07:01:05.005Z,43.60
2023-03-06T07:02:04.967Z,44.10
2023-03-06T07:03:04.954Z,43.50
2023-03-06T07:04:04.991Z,44.70
2023-03-06T07:05:05.672Z,45.60
2023-03-06T07:06:05.928Z,43.60
2023-03-06T07:07:04.907Z,45.10
2023-03-06T07:08:04.970Z,44.80
2023-03-06T07:09:04.884Z,43.90
2023-03-06T07:10:04.898Z,43.90
2023-03-06T07:11:04.897Z,44.60
2023-03-06T07:12:04.866Z,43.90
2023-03-06T07:13:04.889Z,42.30
2023-03-06T07:14:04.959Z,42.20
2023-03-06T07:15:05.843Z,40.60
2023-03-06T07:16:04.870Z,41.50
2023-03-06T07:17:04.807Z,41.60
2023-03-06T07:18:04.839Z,41.70
2023-03-06T07:19:04.777Z,40.40
2023-03-06T07:20:04.800Z,41.30
2023-03-06T07:21:04.801Z,40.90
2023-03-06T07:22:04.769Z,39.00
2023-03-06T07:23:04.749Z,39.30
2023-03-06T07:24:04.734Z,38.80
2023-03-06T07:25:04.709Z,36.90
2023-03-06T07:26:04.685Z,37.10
2023-03-06T07:27:04.716Z,38.30
2023-03-06T07:28:05.143Z,39.10
2023-03-06T07:29:04.665Z,38.60
2023-03-06T07:30:04.674Z,38.70
2023-03-06T07:31:04.749Z,39.10
2023-03-06T07:32:04.704Z,38.20
2023-03-06T07:33:04.609Z,38.90
2023-03-06T07:34:05.157Z,38.50
2023-03-06T07:35:19.340Z,38.20
2023-03-06T07:36:06.644Z,40.30
2023-03-06T07:37:04.634Z,39.10
2023-03-06T07:38:04.595Z,38.80
2023-03-06T07:39:04.562Z,39.20
2023-03-06T07:40:04.622Z,39.00
2023-03-06T07:41:04.527Z,40.70
2023-03-06T07:42:04.559Z,39.90
2023-03-06T07:43:18.425Z,40.50
2023-03-06T07:44:06.567Z,41.40
2023-03-06T07:45:04.493Z,40.30
2023-03-06T07:46:04.585Z,40.10
2023-03-06T07:47:04.546Z,40.30
2023-03-06T07:48:05.614Z,40.20
2023-03-06T07:49:05.598Z,40.20
2023-03-06T07:50:04.639Z,39.60
2023-03-06T07:51:04.807Z,39.60
2023-03-06T07:52:04.617Z,39.10
2023-03-06T07:53:04.689Z,38.60
2023-03-06T07:54:04.574Z,40.80
2023-03-06T07:55:04.592Z,37.90
2023-03-06T07:56:05.157Z,38.00
2023-03-06T07:57:04.893Z,38.40
2023-03-06T07:58:04.616Z,38.40
2023-03-06T07:59:04.620Z,38.50
2023-03-06T08:00:07.733Z,39.80
2023-03-06T08:01:05.709Z,37.80
2023-03-06T08:02:04.678Z,36.00
2023-03-06T08:03:04.675Z,35.30
2023-03-06T08:04:04.389Z,35.50
2023-03-06T08:05:04.603Z,34.80
2023-03-06T08:06:04.555Z,34.90
2023-03-06T08:07:04.448Z,32.50
2023-03-06T08:08:04.463Z,34.90
2023-03-06T08:09:04.595Z,34.80
2023-03-06T08:10:04.365Z,33.20
2023-03-06T08:11:26.944Z,33.80
2023-03-06T08:12:04.548Z,31.90
2023-03-06T08:13:04.377Z,31.10
2023-03-06T08:14:04.322Z,33.00
2023-03-06T08:15:04.254Z,31.40
2023-03-06T08:16:04.397Z,32.50
2023-03-06T08:17:04.238Z,31.10
2023-03-06T08:18:04.299Z,29.60
2023-03-06T08:19:04.280Z,30.10
2023-03-06T08:20:04.279Z,30.20
2023-03-06T08:21:05.342Z,30.20
2023-03-06T08:22:04.640Z,28.70
2023-03-06T08:23:04.490Z,28.10
2023-03-06T08:24:04.487Z,30.30
2023-03-06T08:25:04.509Z,28.40
2023-03-06T08:26:04.352Z,27.50
2023-03-06T08:27:04.384Z,28.50
2023-03-06T08:28:05.501Z,28.10
2023-03-06T08:29:04.244Z,28.40
2023-03-06T08:30:04.337Z,27.60
2023-03-06T08:31:04.359Z,27.60
2023-03-06T08:32:04.088Z,28.70
2023-03-06T08:33:04.057Z,26.30
2023-03-06T08:34:04.157Z,26.10
2023-03-06T08:35:03.971Z,26.30
2023-03-06T08:36:04.123Z,26.40
2023-03-06T08:37:04.016Z,25.70
2023-03-06T08:38:05.514Z,25.10
2023-03-06T08:39:04.047Z,22.20
2023-03-06T08:40:04.031Z,23.20
2023-03-06T08:41:03.967Z,24.10
2023-03-06T08:42:04.059Z,25.30
2023-03-06T08:43:05.142Z,23.90
2023-03-06T08:44:03.965Z,24.70
2023-03-06T08:45:03.964Z,23.50
2023-03-06T08:46:04.621Z,24.00
2023-03-06T08:47:05.258Z,25.20
2023-03-06T08:48:03.881Z,24.50
2023-03-06T08:49:04.195Z,24.20
2023-03-06T08:50:04.288Z,23.70
2023-03-06T08:51:03.795Z,23.10
2023-03-06T08:52:03.777Z,23.20
2023-03-06T08:53:03.766Z,21.30
2023-03-06T08:54:03.736Z,23.00
2023-03-06T08:55:03.782Z,22.90
2023-03-06T08:56:03.742Z,22.90
2023-03-06T08:57:03.727Z,22.70
2023-03-06T08:58:03.672Z,23.30
2023-03-06T08:59:03.701Z,22.60
2023-03-06T09:00:03.653Z,22.80
2023-03-06T09:01:03.827Z,20.70
2023-03-06T09:02:03.699Z,22.20
2023-03-06T09:03:03.621Z,22.00
2023-03-06T09:04:04.519Z,21.50
2023-03-06T09:05:03.672Z,21.40
2023-03-06T09:06:03.629Z,20.60
2023-03-06T09:07:03.599Z,20.80
2023-03-06T09:08:03.605Z,20.00
2023-03-06T09:09:03.588Z,20.90
2023-03-06T09:10:03.595Z,19.90
2023-03-06T09:11:03.592Z,20.20
2023-03-06T09:12:03.573Z,19.90
2023-03-06T09:13:03.553Z,19.30
2023-03-06T09:14:03.562Z,19.10
2023-03-06T09:15:03.518Z,19.70
2023-03-06T09:16:03.539Z,19.20
2023-03-06T09:17:03.539Z,18.30
2023-03-06T09:18:03.580Z,20.00
2023-03-06T09:19:03.491Z,18.50
2023-03-06T09:20:03.452Z,18.40
2023-03-06T09:21:03.469Z,19.00
2023-03-06T09:22:03.434Z,18.90
2023-03-06T09:23:03.466Z,19.40
2023-03-06T09:24:03.436Z,18.60
2023-03-06T09:25:03.389Z,19.40
2023-03-06T09:26:03.385Z,18.80
2023-03-06T09:27:03.409Z,19.50
2023-03-06T09:28:11.301Z,19.00
2023-03-06T09:29:05.388Z,19.40
2023-03-06T09:30:03.393Z,19.00
2023-03-06T09:31:03.360Z,19.00
2023-03-06T09:32:03.387Z,18.60
2023-03-06T09:33:03.347Z,19.10
2023-03-06T09:34:03.313Z,18.40
2023-03-06T09:35:03.312Z,19.70
2023-03-06T09:36:03.328Z,18.50
2023-03-06T09:37:03.315Z,18.80
2023-03-06T09:38:03.317Z,18.70
2023-03-06T09:39:03.265Z,18.50
2023-03-06T09:40:03.251Z,18.70
2023-03-06T09:41:03.264Z,18.30
2023-03-06T09:42:03.249Z,18.70
2023-03-06T09:43:03.262Z,18.60
2023-03-06T09:44:03.227Z,18.10
2023-03-06T09:45:03.237Z,18.60
2023-03-06T09:46:03.233Z,17.60
2023-03-06T09:47:03.214Z,19.10
2023-03-06T09:48:03.201Z,18.30
2023-03-06T09:49:03.202Z,18.00
2023-03-06T09:50:03.196Z,18.80
2023-03-06T09:51:03.126Z,18.50
2023-03-06T09:52:03.258Z,17.30
2023-03-06T09:53:03.137Z,17.40
2023-03-06T09:54:03.113Z,16.90
2023-03-06T09:55:03.076Z,17.20
2023-03-06T09:56:03.125Z,17.30
2023-03-06T09:57:03.074Z,16.20
2023-03-06T09:58:03.576Z,17.40
2023-03-06T09:59:03.077Z,16.80
2023-03-06T10:00:04.575Z,17.40
2023-03-06T10:01:04.200Z,16.90
2023-03-06T10:02:03.029Z,17.00
2023-03-06T10:03:03.099Z,15.70
2023-03-06T10:04:02.992Z,16.60
2023-03-06T10:05:03.030Z,16.40
2023-03-06T10:06:02.980Z,17.60
2023-03-06T10:07:02.977Z,17.20
2023-03-06T10:08:02.957Z,17.60
2023-03-06T10:09:02.931Z,17.30
2023-03-06T10:10:02.924Z,17.00
2023-03-06T10:11:03.553Z,16.50
2023-03-06T10:12:02.912Z,16.90
2023-03-06T10:13:02.863Z,17.40
2023-03-06T10:14:02.889Z,16.40
2023-03-06T10:15:02.864Z,16.00
2023-03-06T10:16:02.911Z,15.50
2023-03-06T10:17:02.905Z,15.90
2023-03-06T10:18:02.845Z,16.30
2023-03-06T10:19:02.821Z,15.80
2023-03-06T10:20:02.828Z,16.00
2023-03-06T10:21:18.499Z,15.90
2023-03-06T10:22:04.836Z,15.60
2023-03-06T10:23:05.110Z,15.60
2023-03-06T10:24:03.752Z,15.90
2023-03-06T10:25:02.763Z,16.10
2023-03-06T10:26:02.833Z,15.70
2023-03-06T10:27:02.824Z,16.20
2023-03-06T10:28:02.714Z,16.20
2023-03-06T10:29:02.772Z,15.50
2023-03-06T10:30:04.044Z,15.60
2023-03-06T10:31:03.808Z,16.00
2023-03-06T10:32:02.748Z,16.70
2023-03-06T10:33:02.733Z,15.50
2023-03-06T10:34:02.775Z,15.70
2023-03-06T10:35:02.762Z,15.60
2023-03-06T10:36:02.705Z,15.20
2023-03-06T10:37:02.639Z,16.00
2023-03-06T10:38:02.614Z,16.10
2023-03-06T10:39:02.617Z,15.70
2023-03-06T10:40:02.669Z,16.00
2023-03-06T10:41:02.581Z,16.10
2023-03-06T10:42:03.599Z,16.20
2023-03-06T10:43:11.375Z,15.90
2023-03-06T10:44:04.635Z,15.70
2023-03-06T10:45:02.550Z,16.20
2023-03-06T10:46:03.550Z,15.20
2023-03-06T10:47:02.515Z,15.50
2023-03-06T10:48:02.546Z,14.70
2023-03-06T10:49:02.523Z,14.10
2023-03-06T10:50:02.478Z,13.90
2023-03-06T10:51:09.785Z,14.10
2023-03-06T10:52:04.475Z,13.80
2023-03-06T10:53:02.486Z,13.80
2023-03-06T10:54:02.605Z,14.50
2023-03-06T10:55:02.473Z,14.00
2023-03-06T10:56:02.478Z,13.50
2023-03-06T10:57:02.425Z,13.70
2023-03-06T10:58:02.466Z,13.00
2023-03-06T10:59:02.387Z,13.50
2023-03-06T11:00:02.392Z,12.30
2023-03-06T11:01:02.383Z,12.20
2023-03-06T11:02:02.443Z,12.50
2023-03-06T11:03:02.334Z,12.10
2023-03-06T11:04:02.444Z,10.80
2023-03-06T11:05:02.411Z,11.90
2023-03-06T11:06:02.312Z,11.80
2023-03-06T11:07:02.301Z,10.60
2023-03-06T11:08:02.258Z,10.90
2023-03-06T11:09:02.328Z,10.50
2023-03-06T11:10:02.261Z,11.70
2023-03-06T11:11:02.282Z,10.70
2023-03-06T11:12:02.266Z,10.70
2023-03-06T11:13:02.242Z,11.20
2023-03-06T11:14:02.219Z,10.80
2023-03-06T11:15:02.236Z,10.80
2023-03-06T11:16:02.210Z,11.00
2023-03-06T11:17:02.170Z,10.20
2023-03-06T11:18:03.065Z,10.60
2023-03-06T11:19:02.182Z,10.20
2023-03-06T11:20:02.208Z,10.00
2023-03-06T11:21:02.143Z,9.10
2023-03-06T11:22:02.146Z,9.60
2023-03-06T11:23:02.168Z,10.00
2023-03-06T11:24:02.103Z,10.10
2023-03-06T11:25:02.169Z,9.80
2023-03-06T11:26:02.106Z,10.30
2023-03-06T11:27:02.088Z,10.20
2023-03-06T11:28:02.066Z,10.00
2023-03-06T11:29:02.159Z,9.30
2023-03-06T11:30:02.128Z,9.90
2023-03-06T11:31:03.140Z,9.10
2023-03-06T11:32:02.122Z,9.00
2023-03-06T11:33:01.982Z,9.60
2023-03-06T11:34:01.980Z,9.20
2023-03-06T11:35:02.065Z,9.50
2023-03-06T11:36:02.020Z,8.10
2023-03-06T11:37:01.980Z,9.00
2023-03-06T11:38:01.984Z,8.70
2023-03-06T11:39:01.963Z,8.30
2023-03-06T11:40:01.959Z,9.40
2023-03-06T11:41:01.937Z,9.60
2023-03-06T11:42:01.932Z,9.00
2023-03-06T11:43:01.935Z,9.90
2023-03-06T11:44:01.881Z,9.60
2023-03-06T11:45:03.039Z,9.90
2023-03-06T11:46:02.875Z,9.40
2023-03-06T11:47:01.962Z,9.00
2023-03-06T11:48:01.850Z,9.20
2023-03-06T11:49:01.868Z,8.40
2023-03-06T11:50:01.857Z,8.10
2023-03-06T11:51:01.828Z,8.40
2023-03-06T11:52:01.822Z,7.80
2023-03-06T11:53:01.816Z,8.60
2023-03-06T11:54:01.838Z,8.60
2023-03-06T11:55:01.947Z,8.20
2023-03-06T11:56:01.787Z,8.60
2023-03-06T11:57:01.763Z,9.10
2023-03-06T11:58:01.773Z,9.10
2023-03-06T11:59:01.793Z,9.90
2023-03-06T12:00:01.783Z,9.60
2023-03-06T12:01:02.024Z,9.10
2023-03-06T12:02:01.692Z,9.90
2023-03-06T12:03:01.688Z,8.90
2023-03-06T12:04:01.736Z,9.40
2023-03-06T12:05:01.866Z,8.60
2023-03-06T12:06:01.634Z,8.70
2023-03-06T12:07:01.737Z,7.90
2023-03-06T12:08:01.642Z,7.70
2023-03-06T12:09:01.632Z,7.70
2023-03-06T12:10:01.661Z,8.30
2023-03-06T12:11:01.591Z,7.50
2023-03-06T12:12:01.646Z,7.20
2023-03-06T12:13:01.611Z,7.60
2023-03-06T12:14:03.964Z,7.40
2023-03-06T12:15:01.607Z,8.20
2023-03-06T12:16:01.546Z,7.40
2023-03-06T12:17:01.572Z,7.60
2023-03-06T12:18:01.577Z,7.60
2023-03-06T12:19:01.532Z,7.60
2023-03-06T12:20:01.600Z,7.10
2023-03-06T12:21:01.491Z,7.20
2023-03-06T12:22:01.479Z,7.70
2023-03-06T12:23:14.579Z,7.20
2023-03-06T12:24:03.446Z,7.20
2023-03-06T12:25:01.835Z,7.40
2023-03-06T12:26:01.516Z,7.10
2023-03-06T12:27:01.517Z,7.30
2023-03-06T12:28:01.458Z,7.30
2023-03-06T12:29:01.420Z,7.50
2023-03-06T12:30:01.459Z,7.30
2023-03-06T12:31:01.403Z,7.00
2023-03-06T12:32:01.547Z,7.30
2023-03-06T12:33:01.395Z,7.50
2023-03-06T12:34:01.362Z,7.50
2023-03-06T12:35:01.466Z,7.40
2023-03-06T12:36:01.369Z,7.20
2023-03-06T12:37:01.339Z,7.20
2023-03-06T12:38:01.353Z,6.70
2023-03-06T12:39:01.316Z,7.30
2023-03-06T12:40:01.322Z,6.70
2023-03-06T12:41:01.280Z,6.90
2023-03-06T12:42:01.640Z,6.80
2023-03-06T12:43:01.274Z,6.80
2023-03-06T12:44:01.247Z,7.20
2023-03-06T12:45:01.312Z,7.40
2023-03-06T12:46:01.239Z,7.60
2023-03-06T12:47:01.292Z,7.50
2023-03-06T12:48:01.247Z,7.60
2023-03-06T12:49:01.201Z,7.40
2023-03-06T12:50:01.241Z,7.60
2023-03-06T12:51:01.198Z,7.80
2023-03-06T12:52:01.201Z,8.20
2023-03-06T12:53:01.231Z,8.00
2023-03-06T12:54:01.193Z,8.10
2023-03-06T12:55:01.156Z,7.80
2023-03-06T12:56:01.167Z,8.20
2023-03-06T12:57:01.597Z,8.40